Time;durP1;ratioP1;P1;durP2;ratioP2;P2;SDS_P1;SDS_P2;PMS_P1;PMS_P2;Temp;Humidity;BMP_temperature;BMP_pressure;BME280_temperature;BME280_humidity;BME280_pressure;Samples;Min_cycle;Max_cycle;Signal;HPM_P1;HPM_P2
2021/06/14 00:00:32;;;;;;;4.87;2.33;;;;;;;15.35;86.95;98422.20;1827708;78;21533;-61
2021/06/14 00:03:06;;;;;;;4.40;2.33;;;;;;;15.36;87.40;98422.16;1870642;76;22516;-65
2021/06/14 00:05:44;;;;;;;3.75;2.20;;;;;;;15.37;87.59;98417.84;1870617;76;22596;-65
2021/06/14 00:08:21;;;;;;;5.83;2.80;;;;;;;15.37;87.62;98421.73;1889911;76;22550;-61
2021/06/14 00:10:58;;;;;;;5.20;2.50;;;;;;;15.38;87.67;98416.49;1889934;76;22559;-60
2021/06/14 00:13:34;;;;;;;4.10;2.40;;;;;;;15.38;87.62;98413.89;1889911;76;22144;-62
2021/06/14 00:16:15;;;;;;;5.67;2.72;;;;;;;15.40;87.34;98418.63;1889881;76;23144;-65
2021/06/14 00:19:04;;;;;;;5.25;2.40;;;;;;;15.38;87.40;98426.89;1791708;80;21644;-60
2021/06/14 00:21:40;;;;;;;5.53;2.30;;;;;;;15.44;87.13;98421.17;1870607;76;22152;-64
2021/06/14 00:24:14;;;;;;;4.72;2.42;;;;;;;15.45;87.19;98428.10;1854765;76;27914;-65
2021/06/14 00:26:49;;;;;;;5.03;2.55;;;;;;;15.49;86.97;98438.40;1870655;76;22591;-62
2021/06/14 00:29:23;;;;;;;4.67;2.95;;;;;;;15.52;87.06;98441.39;1889971;76;22176;-63
2021/06/14 00:31:58;;;;;;;5.65;2.80;;;;;;;15.52;87.16;98450.08;1870731;76;22139;-63
2021/06/14 00:34:32;;;;;;;5.70;2.33;;;;;;;15.52;87.24;98442.69;1870650;76;22120;-63
2021/06/14 00:37:07;;;;;;;6.62;2.60;;;;;;;15.54;87.41;98444.83;1870643;76;22591;-61
2021/06/14 00:39:42;;;;;;;6.12;2.80;;;;;;;15.52;87.54;98437.48;1890057;76;22104;-63
2021/06/14 00:42:29;;;;;;;5.50;2.70;;;;;;;15.44;87.35;98441.52;1791555;80;21251;-63
2021/06/14 00:45:14;;;;;;;3.92;2.33;;;;;;;15.46;86.84;98432.41;1870638;76;22133;-61
2021/06/14 00:47:47;;;;;;;6.58;2.90;;;;;;;15.43;86.71;98433.77;1870624;76;22141;-61
2021/06/14 00:50:45;;;;;;;4.70;3.15;;;;;;;15.40;86.33;98432.08;1870872;76;22137;-60
2021/06/14 00:53:25;;;;;;;5.33;2.95;;;;;;;15.41;86.70;98429.88;1870665;76;22219;-61
2021/06/14 00:56:05;;;;;;;5.83;2.70;;;;;;;15.43;86.52;98431.17;1870553;76;22185;-63
2021/06/14 00:58:42;;;;;;;6.25;3.02;;;;;;;15.41;85.94;98430.73;1870405;76;22580;-63
2021/06/14 01:01:17;;;;;;;4.42;2.20;;;;;;;15.40;85.43;98425.13;1870752;76;22144;-63
2021/06/14 01:03:52;;;;;;;6.72;2.60;;;;;;;15.41;84.63;98425.53;1854888;76;27979;-65
2021/06/14 01:06:38;;;;;;;4.42;2.27;;;;;;;15.43;84.25;98423.37;1760356;80;21110;-63
2021/06/14 01:09:14;;;;;;;6.85;2.87;;;;;;;15.49;83.70;98421.95;1870642;76;22148;-62
2021/06/14 01:12:03;;;;;;;7.37;2.83;;;;;;;15.49;83.30;98421.50;1854874;76;27927;-64
2021/06/14 01:15:02;;;;;;;5.75;2.62;;;;;;;15.54;83.13;98427.92;1870440;76;22528;-60
2021/06/14 01:18:01;;;;;;;4.55;2.25;;;;;;;15.55;83.38;98430.96;1870661;76;22140;-61
2021/06/14 01:20:57;;;;;;;10.63;3.02;;;;;;;15.57;83.13;98433.95;1889929;76;22132;-62
2021/06/14 01:24:30;;;;;;;6.72;3.22;;;;;;;15.59;83.11;98436.05;1867271;75;22207;-62
2021/06/14 01:27:13;;;;;;;6.22;2.70;;;;;;;15.59;82.70;98434.75;1870664;76;22109;-64
2021/06/14 01:29:48;;;;;;;4.58;2.40;;;;;;;15.58;82.62;98434.80;1870763;76;22113;-63
2021/06/14 01:32:23;;;;;;;4.90;2.35;;;;;;;15.57;82.42;98431.77;1854778;76;27889;-61
2021/06/14 01:34:59;;;;;;;4.85;2.67;;;;;;;15.62;82.15;98433.84;1889938;76;22171;-62
2021/06/14 01:37:37;;;;;;;4.87;2.58;;;;;;;15.61;82.23;98434.73;1889985;76;22167;-61
2021/06/14 01:40:14;;;;;;;5.25;2.65;;;;;;;15.60;81.70;98436.48;1870852;76;22125;-61
2021/06/14 01:42:51;;;;;;;4.12;2.10;;;;;;;15.61;81.76;98433.44;1870821;76;22120;-61
2021/06/14 01:45:28;;;;;;;4.40;2.47;;;;;;;15.59;81.39;98437.80;1870648;76;22137;-64
2021/06/14 01:48:04;;;;;;;4.72;2.80;;;;;;;15.60;81.46;98438.23;1890073;76;22112;-61
2021/06/14 01:50:40;;;;;;;5.72;2.40;;;;;;;15.60;81.19;98440.39;1835089;77;22157;-60
2021/06/14 01:53:15;;;;;;;6.30;3.55;;;;;;;15.61;80.65;98441.24;1870763;76;22539;-64
2021/06/14 01:55:52;;;;;;;5.78;2.58;;;;;;;15.62;80.71;98446.84;1870477;76;22144;-65
2021/06/14 01:58:27;;;;;;;6.12;2.52;;;;;;;15.61;80.19;98442.09;1889961;76;22538;-61
2021/06/14 02:01:03;;;;;;;6.28;2.98;;;;;;;15.60;79.69;98449.49;1870667;76;22125;-63
2021/06/14 02:03:39;;;;;;;5.03;2.45;;;;;;;15.62;79.75;98445.55;1870700;76;22113;-61
2021/06/14 02:06:14;;;;;;;5.20;2.60;;;;;;;15.62;79.68;98446.84;1890017;76;22151;-61
2021/06/14 02:08:49;;;;;;;5.20;2.50;;;;;;;15.63;79.48;98452.03;1870646;76;22547;-61
2021/06/14 02:11:25;;;;;;;7.22;2.33;;;;;;;15.64;79.55;98460.69;1870589;76;22128;-62
2021/06/14 02:14:01;;;;;;;4.35;2.05;;;;;;;15.64;79.62;98456.79;1870699;76;20369;-61
2021/06/14 02:16:37;;;;;;;5.22;2.20;;;;;;;15.64;79.64;98458.09;1841938;77;27991;-61
2021/06/14 02:19:13;;;;;;;4.60;2.42;;;;;;;15.71;79.35;98454.53;1854866;76;27891;-62
2021/06/14 02:21:49;;;;;;;5.22;2.40;;;;;;;15.81;79.05;98462.58;1870681;76;22116;-62
2021/06/14 02:24:24;;;;;;;4.90;2.52;;;;;;;15.79;79.01;98461.75;1873843;76;28328;-61
2021/06/14 02:27:13;;;;;;;3.60;1.92;;;;;;;15.77;79.41;98463.55;1861326;77;21609;-64
2021/06/14 02:29:48;;;;;;;5.85;2.37;;;;;;;15.78;79.59;98463.95;1870654;76;22179;-61
2021/06/14 02:32:32;;;;;;;6.00;2.70;;;;;;;15.75;79.62;98460.11;1889999;76;22590;-63
2021/06/14 02:35:21;;;;;;;6.42;2.45;;;;;;;15.70;79.92;98468.44;1861443;77;21664;-63
2021/06/14 02:38:03;;;;;;;4.55;2.60;;;;;;;15.72;80.05;98471.88;1870674;76;22129;-60
2021/06/14 02:40:41;;;;;;;5.67;2.22;;;;;;;15.68;80.26;98472.77;1870608;76;22164;-64
2021/06/14 02:43:16;;;;;;;4.83;2.20;;;;;;;15.67;80.39;98480.14;1870637;76;22137;-62
2021/06/14 02:45:52;;;;;;;7.40;2.15;;;;;;;15.70;80.34;98478.84;1870640;76;22555;-60
2021/06/14 02:48:41;;;;;;;8.60;2.65;;;;;;;15.66;80.24;98484.94;1760478;81;21588;-63
2021/06/14 02:51:18;;;;;;;5.17;2.50;;;;;;;15.74;80.18;98486.98;1870631;76;22145;-63
2021/06/14 02:56:40;;;;;;;3.92;2.30;;;;;;;15.79;79.62;98491.67;1870604;76;22583;-66
2021/06/14 02:59:17;;;;;;;3.60;2.05;;;;;;;15.81;79.66;98483.84;1890053;76;22140;-61
2021/06/14 03:01:53;;;;;;;3.55;2.30;;;;;;;15.83;79.53;98485.54;1870647;76;22186;-63
2021/06/14 03:04:29;;;;;;;5.25;2.15;;;;;;;15.87;79.36;98482.88;1870563;76;22579;-63
2021/06/14 03:07:05;;;;;;;4.90;2.75;;;;;;;15.89;79.59;98489.77;1854753;76;27980;-62
2021/06/14 03:09:40;;;;;;;6.03;2.90;;;;;;;15.95;79.32;98488.78;1854757;76;27926;-61
2021/06/14 03:12:17;;;;;;;3.85;2.10;;;;;;;16.01;79.04;98490.00;1889962;76;22120;-64
2021/06/14 03:14:52;;;;;;;4.60;2.50;;;;;;;16.01;79.15;98497.36;1870735;76;22145;-62
2021/06/14 03:17:40;;;;;;;4.37;2.67;;;;;;;15.99;78.71;98496.97;1760421;81;21180;-59
2021/06/14 03:20:16;;;;;;;5.83;3.00;;;;;;;16.05;78.56;98491.22;1870694;76;22137;-61
2021/06/14 03:22:53;;;;;;;6.05;2.77;;;;;;;16.08;78.66;98492.91;1889867;76;22164;-63
2021/06/14 03:25:30;;;;;;;7.75;2.95;;;;;;;16.12;78.46;98489.34;1889936;76;22120;-64
2021/06/14 03:28:06;;;;;;;6.37;2.67;;;;;;;16.18;78.46;98487.94;1890059;76;22112;-61
2021/06/14 03:30:49;;;;;;;4.53;2.70;;;;;;;16.25;78.23;98489.95;1869859;76;22214;-64
2021/06/14 03:33:35;;;;;;;4.83;2.70;;;;;;;16.30;77.67;98493.33;1760568;81;21129;-62
2021/06/14 03:36:32;;;;;;;6.20;2.90;;;;;;;16.43;77.23;98488.28;1861198;75;22210;-63
2021/06/14 03:39:09;;;;;;;4.55;2.90;;;;;;;16.47;76.82;98495.61;1889920;76;22144;-64
2021/06/14 03:41:47;;;;;;;6.95;2.90;;;;;;;16.46;76.64;98490.84;1870491;76;22568;-62
2021/06/14 03:44:22;;;;;;;6.03;2.77;;;;;;;16.43;76.56;98496.55;1870643;76;22563;-62
2021/06/14 03:46:57;;;;;;;5.37;2.80;;;;;;;16.44;76.61;98493.07;1854759;76;27894;-63
2021/06/14 03:49:32;;;;;;;4.05;2.30;;;;;;;16.52;76.63;98496.38;1870637;76;22172;-63
2021/06/14 03:52:08;;;;;;;5.40;3.17;;;;;;;16.55;76.32;98496.30;1873817;76;27921;-64
2021/06/14 03:54:42;;;;;;;5.35;2.60;;;;;;;16.60;76.06;98499.67;1870552;76;22666;-61
2021/06/14 03:57:17;;;;;;;5.92;2.72;;;;;;;16.59;76.33;98496.66;1870662;76;22164;-62
2021/06/14 03:59:52;;;;;;;5.22;2.85;;;;;;;16.60;76.29;98503.58;1870680;76;22189;-62
2021/06/14 04:02:26;;;;;;;5.67;2.47;;;;;;;16.68;76.39;98512.08;1870610;76;22124;-63
2021/06/14 04:05:01;;;;;;;7.05;2.80;;;;;;;16.83;76.11;98511.39;1870701;76;22140;-63
2021/06/14 04:07:36;;;;;;;5.87;3.02;;;;;;;16.98;75.72;98513.66;1835018;77;28013;-63
2021/06/14 04:10:17;;;;;;;5.20;3.17;;;;;;;17.16;75.33;98510.23;1869798;76;22133;-62
2021/06/14 04:12:51;;;;;;;5.33;2.98;;;;;;;17.25;74.94;98511.30;1889973;76;22590;-62
2021/06/14 04:15:26;;;;;;;6.12;2.83;;;;;;;17.29;74.23;98519.02;1835092;77;22191;-62
2021/06/14 04:18:04;;;;;;;6.12;2.75;;;;;;;17.24;74.23;98520.03;1854565;76;27940;-62
2021/06/14 04:20:39;;;;;;;6.75;2.72;;;;;;;17.30;74.42;98525.09;1870480;76;22137;-64
2021/06/14 04:23:15;;;;;;;5.83;3.02;;;;;;;17.32;74.40;98520.70;1890002;76;20183;-61
2021/06/14 04:25:50;;;;;;;5.95;3.02;;;;;;;17.33;74.36;98530.27;1870627;76;22113;-60
2021/06/14 04:28:24;;;;;;;5.33;3.02;;;;;;;17.40;74.46;98532.26;1823839;77;22244;-62
2021/06/14 04:30:59;;;;;;;5.25;3.45;;;;;;;17.43;74.17;98529.16;1855970;76;22307;-65
2021/06/14 04:33:45;;;;;;;5.10;3.00;;;;;;;17.40;74.20;98537.02;1824545;78;21264;-64
2021/06/14 04:36:20;;;;;;;7.40;2.85;;;;;;;17.45;74.20;98533.86;1852752;76;22213;-64
2021/06/14 04:38:55;;;;;;;4.75;2.83;;;;;;;17.50;74.36;98535.06;1851867;76;22684;-62
2021/06/14 04:41:29;;;;;;;4.10;2.72;;;;;;;17.55;74.01;98531.47;1853378;76;22559;-61
2021/06/14 04:44:11;;;;;;;4.90;3.02;;;;;;;17.64;74.16;98542.57;1889807;76;22184;-64
2021/06/14 04:46:46;;;;;;;5.53;3.10;;;;;;;17.81;73.78;98545.66;1889982;76;22561;-66
2021/06/14 04:49:22;;;;;;;5.22;2.75;;;;;;;17.94;73.54;98549.67;1859960;76;20113;-64
2021/06/14 04:51:57;;;;;;;5.45;3.30;;;;;;;17.99;72.52;98556.94;1863986;76;22591;-65
2021/06/14 04:54:31;;;;;;;8.20;3.45;;;;;;;17.97;72.58;98568.31;1855625;76;22163;-63
2021/06/14 04:57:07;;;;;;;5.47;3.20;;;;;;;17.95;72.77;98572.26;1856943;76;22201;-64
2021/06/14 04:59:42;;;;;;;6.22;3.10;;;;;;;17.92;72.72;98568.42;1854686;76;22148;-62
2021/06/14 05:02:17;;;;;;;6.58;2.65;;;;;;;17.90;72.79;98562.38;1866508;76;22291;-64
2021/06/14 05:04:52;;;;;;;5.47;3.02;;;;;;;17.91;72.84;98564.11;1880378;76;22602;-63
2021/06/14 05:07:27;;;;;;;5.70;2.72;;;;;;;17.93;73.03;98562.75;1865642;76;22200;-61
2021/06/14 05:10:02;;;;;;;6.25;3.40;;;;;;;17.95;73.21;98572.26;1845416;76;22233;-64
2021/06/14 05:12:43;;;;;;;8.13;3.15;;;;;;;17.92;73.26;98573.65;1859861;76;22233;-65
2021/06/14 05:15:17;;;;;;;5.97;3.80;;;;;;;17.91;73.60;98582.39;1852919;76;22170;-63
2021/06/14 05:18:05;;;;;;;6.75;3.00;;;;;;;17.84;73.79;98590.41;1812606;78;21308;-63
2021/06/14 05:20:59;;;;;;;8.53;3.00;;;;;;;17.86;73.98;98582.95;1859504;75;22208;-61
2021/06/14 05:23:34;;;;;;;6.45;3.30;;;;;;;17.86;74.11;98588.59;1837792;76;27965;-65
2021/06/14 05:26:09;;;;;;;5.83;3.10;;;;;;;17.96;74.17;98594.00;1851746;76;22218;-62
2021/06/14 05:28:44;;;;;;;7.08;3.80;;;;;;;18.12;73.94;98598.41;1844212;76;22614;-61
2021/06/14 05:31:18;;;;;;;6.12;3.55;;;;;;;18.19;73.60;98600.83;1850647;76;22297;-63
2021/06/14 05:33:53;;;;;;;5.90;3.98;;;;;;;18.19;73.66;98596.02;1860622;76;22170;-63
2021/06/14 05:36:33;;;;;;;6.47;3.55;;;;;;;18.14;73.99;98597.47;1857330;75;22240;-62
2021/06/14 05:39:14;;;;;;;6.15;3.27;;;;;;;18.07;74.27;98597.67;1851212;76;22580;-64
2021/06/14 05:41:50;;;;;;;5.83;3.25;;;;;;;18.06;74.63;98596.78;1852935;76;22201;-63
2021/06/14 05:44:25;;;;;;;7.42;3.50;;;;;;;18.18;74.65;98594.32;1839565;76;22167;-65
2021/06/14 05:46:59;;;;;;;6.33;3.67;;;;;;;18.21;74.44;98596.84;1862348;76;22214;-63
2021/06/14 05:49:45;;;;;;;6.67;3.50;;;;;;;18.19;74.56;98592.98;1827210;77;21577;-62
2021/06/14 05:52:20;;;;;;;4.83;3.10;;;;;;;18.39;74.45;98596.39;1870415;76;22129;-67
2021/06/14 05:55:14;;;;;;;6.67;3.17;;;;;;;19.41;72.36;98609.20;1876113;76;22203;-65
2021/06/14 05:57:49;;;;;;;6.62;3.55;;;;;;;21.04;66.70;98608.56;1885737;76;22171;-68
2021/06/14 06:00:24;;;;;;;7.50;3.00;;;;;;;22.44;61.87;98613.08;1851209;76;22167;-66
2021/06/14 06:02:58;;;;;;;5.62;3.25;;;;;;;23.48;57.93;98615.89;1847355;76;22593;-63
2021/06/14 06:05:33;;;;;;;9.88;3.12;;;;;;;24.57;55.32;98623.29;1889551;76;22250;-65
2021/06/14 06:08:08;;;;;;;7.33;2.90;;;;;;;25.61;51.77;98622.14;1889266;76;22132;-64
2021/06/14 06:10:55;;;;;;;5.17;2.55;;;;;;;26.35;49.56;98635.14;1791242;80;21182;-68
2021/06/14 06:13:31;;;;;;;6.60;2.50;;;;;;;27.46;47.79;98646.05;1846604;76;28109;-65
2021/06/14 06:16:07;;;;;;;10.40;2.72;;;;;;;28.29;45.21;98657.95;1849177;76;22289;-70
2021/06/14 06:18:43;;;;;;;7.33;3.05;;;;;;;28.69;43.36;98665.88;1836018;76;27937;-71
2021/06/14 06:21:25;;;;;;;8.08;2.65;;;;;;;28.73;43.11;98659.91;1854391;76;22196;-68
2021/06/14 06:23:59;;;;;;;6.08;2.40;;;;;;;29.04;42.65;98663.94;1855539;76;22381;-68
2021/06/14 06:26:35;;;;;;;6.15;2.62;;;;;;;29.03;41.96;98664.91;1869673;76;22082;-63
2021/06/14 06:29:10;;;;;;;11.75;2.85;;;;;;;29.02;42.19;98669.83;1847182;76;22159;-64
2021/06/14 06:31:45;;;;;;;4.45;2.90;;;;;;;29.32;41.60;98675.32;1849579;76;22112;-69
2021/06/14 06:34:19;;;;;;;5.22;2.60;;;;;;;29.35;41.50;98673.28;1854835;76;22566;-64
2021/06/14 06:37:05;;;;;;;7.55;2.70;;;;;;;29.55;40.90;98675.85;1807434;78;21173;-64
2021/06/14 06:39:40;;;;;;;6.95;3.00;;;;;;;29.80;40.61;98675.45;1850343;76;22094;-69
2021/06/14 06:42:15;;;;;;;5.47;2.80;;;;;;;29.84;40.66;98674.25;1855528;76;22483;-63
2021/06/14 06:44:49;;;;;;;7.70;2.60;;;;;;;29.91;41.08;98680.83;1889584;76;22101;-67
2021/06/14 06:47:25;;;;;;;6.83;2.52;;;;;;;30.29;40.28;98683.34;1823405;76;28358;-67
2021/06/14 06:50:01;;;;;;;4.05;2.35;;;;;;;30.58;39.91;98688.31;1826793;76;22678;-66
2021/06/14 06:52:36;;;;;;;7.30;3.02;;;;;;;31.12;39.05;98693.53;1835796;76;28633;-64
2021/06/14 06:55:14;;;;;;;5.67;2.60;;;;;;;30.84;39.02;98698.33;1837001;76;27960;-68
2021/06/14 06:58:07;;;;;;;4.95;2.70;;;;;;;31.07;38.26;98699.70;1853413;76;22200;-66
2021/06/14 07:00:48;;;;;;;5.03;2.50;;;;;;;30.42;39.35;98703.24;1863393;76;22128;-65
2021/06/14 07:03:23;;;;;;;5.10;2.77;;;;;;;29.30;41.37;98703.81;1835601;76;28152;-66
2021/06/14 07:06:09;;;;;;;5.45;2.40;;;;;;;28.30;43.21;98711.38;1814663;77;21794;-70
2021/06/14 07:08:45;;;;;;;4.62;2.62;;;;;;;27.53;45.19;98705.28;1852974;76;22105;-68
2021/06/14 07:11:19;;;;;;;7.20;3.17;;;;;;;27.06;46.39;98708.58;1854981;76;20364;-66
2021/06/14 07:14:06;;;;;;;5.00;3.47;;;;;;;26.55;47.61;98715.56;1811394;78;21298;-69
2021/06/14 07:16:41;;;;;;;5.15;2.70;;;;;;;26.53;48.11;98714.79;1852896;76;22112;-67
2021/06/14 07:19:17;;;;;;;4.78;2.95;;;;;;;26.34;48.56;98716.78;1852883;76;22120;-62
2021/06/14 07:21:52;;;;;;;5.95;3.33;;;;;;;25.82;49.77;98718.36;1855339;76;28420;-67
2021/06/14 07:24:28;;;;;;;6.97;2.92;;;;;;;25.60;50.77;98717.39;1849770;76;22162;-71
2021/06/14 07:27:05;;;;;;;6.15;3.20;;;;;;;25.50;51.11;98719.19;1857840;76;20160;-70
2021/06/14 07:29:40;;;;;;;7.17;3.33;;;;;;;25.42;51.67;98720.55;1830259;76;28443;-66
2021/06/14 07:32:16;;;;;;;6.60;3.10;;;;;;;26.26;50.30;98724.31;1824904;76;29185;-67
2021/06/14 07:34:51;;;;;;;5.90;3.55;;;;;;;27.37;48.46;98715.52;1856430;76;22619;-69
2021/06/14 07:37:38;;;;;;;6.87;2.70;;;;;;;28.02;45.85;98726.08;1800395;78;21126;-67
2021/06/14 07:40:15;;;;;;;7.00;2.98;;;;;;;28.78;44.37;98732.99;1848703;76;22183;-71
2021/06/14 07:42:50;;;;;;;4.65;2.65;;;;;;;29.31;43.39;98732.08;1820670;77;22648;-66
2021/06/14 07:45:31;;;;;;;6.47;2.65;;;;;;;29.74;42.36;98740.59;1850870;76;22247;-68
2021/06/14 07:48:14;;;;;;;3.58;2.27;;;;;;;30.42;41.89;98739.68;1856051;76;22216;-65
2021/06/14 07:50:52;;;;;;;5.37;2.90;;;;;;;31.26;39.42;98748.43;1851207;76;38818;-66
2021/06/14 07:53:27;;;;;;;6.80;2.90;;;;;;;31.63;38.51;98753.59;1869382;76;22312;-70
2021/06/14 07:56:12;;;;;;;4.65;2.52;;;;;;;31.65;38.50;98756.95;1836305;77;21141;-64
2021/06/14 07:58:48;;;;;;;10.82;3.10;;;;;;;31.32;38.34;98752.81;1836673;76;22120;-68
2021/06/14 08:01:23;;;;;;;4.35;2.60;;;;;;;31.43;38.87;98756.00;1855169;76;22066;-64
2021/06/14 08:04:09;;;;;;;6.37;2.40;;;;;;;31.89;38.04;98762.17;1749939;81;21161;-70
2021/06/14 08:06:44;;;;;;;5.75;2.40;;;;;;;32.33;37.04;98763.08;1853893;76;22535;-72
2021/06/14 08:09:26;;;;;;;4.60;2.65;;;;;;;32.28;36.53;98765.27;1836775;76;28013;-65
2021/06/14 08:11:58;;;;;;;3.58;2.45;;;;;;;31.93;37.21;98769.84;1880169;76;22089;-62
2021/06/14 08:14:31;;;;;;;4.55;2.20;;;;;;;30.80;38.63;98760.77;1870804;76;22469;-68
2021/06/14 09:05:59;;;;;;;7.17;3.05;;;;;;;26.93;48.48;98804.28;1857794;77;28870;-65
2021/06/14 09:08:35;;;;;;;7.35;3.70;;;;;;;26.52;49.52;98814.99;1854630;76;28319;-64
2021/06/14 09:11:11;;;;;;;10.25;2.92;;;;;;;26.50;49.98;98810.22;1870189;76;22167;-66
2021/06/14 09:13:46;;;;;;;8.60;3.22;;;;;;;26.65;50.23;98811.66;1854842;76;38658;-65
2021/06/14 09:16:21;;;;;;;6.30;3.65;;;;;;;26.60;49.43;98827.31;1870659;76;22587;-65
2021/06/14 09:18:58;;;;;;;6.20;3.42;;;;;;;25.94;51.12;98816.88;1889869;76;22236;-68
2021/06/14 09:21:33;;;;;;;7.55;3.35;;;;;;;25.56;52.24;98818.42;1849762;76;38335;-65
2021/06/14 09:24:13;;;;;;;8.55;3.55;;;;;;;25.25;53.18;98819.17;1889901;76;22609;-66
2021/06/14 09:27:08;;;;;;;10.05;3.60;;;;;;;24.91;54.21;98820.38;1869595;75;22200;-63
2021/06/14 09:29:43;;;;;;;6.97;3.62;;;;;;;24.76;54.89;98819.83;1870528;76;22135;-67
2021/06/14 09:32:24;;;;;;;5.62;3.90;;;;;;;24.81;55.11;98818.28;1889856;76;22585;-64
2021/06/14 09:35:00;;;;;;;10.32;4.50;;;;;;;24.88;54.99;98814.38;1854567;76;28046;-64
2021/06/14 09:37:34;;;;;;;5.83;3.70;;;;;;;25.03;54.62;98815.41;1846321;76;22231;-65
2021/06/14 09:40:37;;;;;;;7.20;4.00;;;;;;;25.03;54.26;98812.77;1865835;75;22171;-67
2021/06/14 09:43:31;;;;;;;9.73;4.10;;;;;;;24.81;54.76;98824.41;1871145;76;22218;-67
2021/06/14 09:46:25;;;;;;;7.58;3.70;;;;;;;24.61;55.30;98816.15;1870827;76;22167;-65
2021/06/14 09:49:04;;;;;;;6.72;3.60;;;;;;;24.47;56.26;98820.79;1853524;76;22257;-64
2021/06/14 09:51:51;;;;;;;7.78;3.98;;;;;;;24.51;56.45;98822.80;1862488;76;22215;-66
2021/06/14 09:54:30;;;;;;;5.28;3.77;;;;;;;24.46;56.95;98816.42;1849730;76;22195;-66
2021/06/14 09:57:28;;;;;;;6.45;3.58;;;;;;;24.52;56.99;98822.33;1815642;78;21296;-65
2021/06/14 10:00:12;;;;;;;6.80;3.85;;;;;;;24.40;56.00;98824.61;1855666;76;22201;-63
2021/06/14 10:02:47;;;;;;;6.90;3.95;;;;;;;24.17;56.99;98824.82;1855575;76;22597;-65
2021/06/14 10:05:23;;;;;;;7.28;4.17;;;;;;;24.11;57.18;98835.66;1859330;76;22239;-65
2021/06/14 10:08:04;;;;;;;6.40;3.47;;;;;;;24.15;57.37;98834.61;1850942;76;22155;-66
2021/06/14 10:10:40;;;;;;;8.33;4.30;;;;;;;24.29;57.15;98832.16;1830641;76;28027;-65
2021/06/14 10:13:30;;;;;;;6.80;3.50;;;;;;;24.59;56.79;98835.16;1816219;78;21227;-68
2021/06/14 10:16:16;;;;;;;9.23;4.35;;;;;;;24.96;55.96;98836.44;1842697;76;22650;-64
2021/06/14 10:18:56;;;;;;;6.08;3.83;;;;;;;24.93;55.83;98838.77;1889838;76;22168;-65
2021/06/14 10:21:36;;;;;;;6.92;3.75;;;;;;;24.67;56.59;98834.78;1889895;76;22144;-58
2021/06/14 10:24:17;;;;;;;7.65;4.10;;;;;;;24.60;56.63;98832.92;1870549;76;22144;-62
2021/06/14 10:26:54;;;;;;;7.80;3.60;;;;;;;24.60;56.92;98826.33;1870466;76;22164;-63
2021/06/14 10:29:39;;;;;;;11.18;3.42;;;;;;;24.37;57.73;98834.44;1827812;78;21659;-64
2021/06/14 10:32:15;;;;;;;5.87;4.05;;;;;;;24.28;57.64;98835.73;1873861;76;27920;-64
2021/06/14 10:34:52;;;;;;;9.33;3.72;;;;;;;24.31;56.58;98833.42;1870499;76;22167;-63
2021/06/14 10:37:27;;;;;;;4.83;3.35;;;;;;;24.53;56.12;98838.10;1870564;76;22222;-65
2021/06/14 10:40:05;;;;;;;5.55;2.98;;;;;;;24.71;55.19;98832.87;1858422;76;22140;-63
2021/06/14 10:42:44;;;;;;;8.30;3.17;;;;;;;24.89;54.05;98828.84;1863074;76;22249;-65
2021/06/14 10:45:30;;;;;;;6.60;3.37;;;;;;;25.04;54.01;98831.19;1860965;76;22600;-61
2021/06/14 10:48:11;;;;;;;7.85;3.40;;;;;;;25.28;53.35;98823.81;1844976;76;28434;-63
2021/06/14 10:50:47;;;;;;;6.35;3.15;;;;;;;25.38;52.82;98828.63;1851942;76;22559;-64
2021/06/14 10:53:28;;;;;;;5.90;2.87;;;;;;;25.48;52.48;98829.86;1855072;76;20149;-64
2021/06/14 10:56:03;;;;;;;6.53;2.62;;;;;;;25.40;51.30;98823.66;1847112;76;22171;-64
2021/06/14 10:59:05;;;;;;;5.70;3.22;;;;;;;25.21;52.29;98832.98;1795246;79;21114;-62
2021/06/14 11:01:46;;;;;;;5.28;3.58;;;;;;;25.13;53.23;98827.20;1870741;76;22556;-66
2021/06/14 11:04:25;;;;;;;4.83;2.75;;;;;;;25.28;53.67;98826.93;1870596;76;22173;-63
2021/06/14 11:07:11;;;;;;;5.00;2.80;;;;;;;25.42;52.81;98826.23;1814371;78;21551;-62
2021/06/14 11:09:45;;;;;;;7.03;3.17;;;;;;;25.61;52.59;98827.44;1866100;76;22208;-64
2021/06/14 11:12:29;;;;;;;4.30;3.17;;;;;;;25.49;52.66;98831.56;1850814;76;22243;-61
2021/06/14 11:15:11;;;;;;;5.00;2.98;;;;;;;25.38;52.27;98832.59;1850656;76;22183;-62
2021/06/14 11:17:46;;;;;;;6.50;2.90;;;;;;;25.29;52.17;98831.27;1858337;76;22190;-64
2021/06/14 11:20:26;;;;;;;6.97;3.00;;;;;;;25.40;52.21;98826.78;1836948;76;28136;-64
2021/06/14 11:23:01;;;;;;;7.00;3.40;;;;;;;25.56;52.42;98827.67;1865370;76;22179;-63
2021/06/14 11:25:43;;;;;;;6.90;3.08;;;;;;;25.85;51.94;98816.03;1854296;76;22129;-61
2021/06/14 11:28:38;;;;;;;6.28;2.80;;;;;;;26.13;50.85;98816.27;1865758;76;22212;-64
2021/06/14 11:31:31;;;;;;;6.75;3.67;;;;;;;26.18;50.39;98817.30;1863740;76;22175;-64
2021/06/14 11:34:17;;;;;;;4.65;2.87;;;;;;;26.03;49.91;98821.67;1852729;76;22187;-64
2021/06/14 11:36:57;;;;;;;3.98;2.37;;;;;;;25.88;49.97;98829.11;1852160;76;22578;-64
2021/06/14 11:39:32;;;;;;;6.10;2.47;;;;;;;25.64;49.07;98820.19;1853351;76;22164;-66
2021/06/14 11:42:19;;;;;;;5.08;2.25;;;;;;;25.35;50.33;98816.44;1859668;76;22165;-62
2021/06/14 11:44:58;;;;;;;5.65;2.83;;;;;;;25.03;51.10;98833.89;1864192;76;22614;-62
2021/06/14 11:47:54;;;;;;;7.25;2.62;;;;;;;24.54;53.55;98831.03;1849829;76;22204;-63
2021/06/14 11:50:33;;;;;;;4.28;2.17;;;;;;;24.29;54.21;98829.52;1860334;76;20166;-64
2021/06/14 11:53:09;;;;;;;6.80;2.75;;;;;;;24.14;54.44;98826.29;1856188;76;22132;-66
2021/06/14 11:55:45;;;;;;;6.78;2.87;;;;;;;24.12;55.25;98829.02;1848664;76;28350;-63
2021/06/14 11:58:33;;;;;;;4.72;2.98;;;;;;;24.34;55.16;98817.44;1830556;78;21160;-62
2021/06/14 12:01:08;;;;;;;4.75;2.80;;;;;;;24.86;54.54;98811.84;1855288;76;22180;-62
2021/06/14 12:03:43;;;;;;;4.60;2.77;;;;;;;25.27;52.51;98818.63;1868065;76;20113;-64
2021/06/14 12:06:45;;;;;;;4.37;2.52;;;;;;;25.54;52.08;98815.00;1832117;77;21098;-63
2021/06/14 12:09:26;;;;;;;5.17;2.90;;;;;;;26.06;51.05;98815.36;1844064;76;22148;-64
2021/06/14 12:12:04;;;;;;;6.78;2.90;;;;;;;26.14;50.67;98813.14;1853270;76;22187;-62
2021/06/14 12:14:57;;;;;;;7.10;2.95;;;;;;;25.90;51.29;98828.09;1865738;76;23850;-64
2021/06/14 12:17:36;;;;;;;5.90;3.10;;;;;;;25.48;51.57;98830.72;1839193;76;27987;-62
2021/06/14 12:20:12;;;;;;;5.15;2.72;;;;;;;25.20;52.38;98829.12;1853955;76;22191;-64
2021/06/14 12:22:46;;;;;;;4.83;3.05;;;;;;;25.09;52.87;98822.56;1858641;76;22207;-64
2021/06/14 12:25:21;;;;;;;6.00;3.37;;;;;;;25.12;52.03;98815.80;1850247;76;22160;-64
2021/06/14 12:28:08;;;;;;;8.53;3.40;;;;;;;25.32;52.10;98809.53;1856135;76;22225;-63
2021/06/14 12:31:05;;;;;;;5.97;3.47;;;;;;;25.64;51.87;98817.54;1864770;76;22155;-64
2021/06/14 12:33:47;;;;;;;6.17;3.47;;;;;;;25.95;50.96;98811.95;1856427;76;22182;-65
2021/06/14 12:36:32;;;;;;;5.80;3.27;;;;;;;26.07;50.89;98809.97;1827283;78;21164;-65
2021/06/14 12:39:07;;;;;;;6.42;2.87;;;;;;;26.39;48.79;98824.54;1856262;76;22182;-64
2021/06/14 12:41:48;;;;;;;5.95;2.55;;;;;;;26.43;48.67;98819.44;1853970;76;22641;-64
2021/06/14 12:44:23;;;;;;;6.47;2.80;;;;;;;26.34;48.75;98804.09;1862209;76;22163;-65
2021/06/14 12:46:58;;;;;;;3.42;2.62;;;;;;;26.39;48.70;98807.34;1855800;76;22276;-63
2021/06/14 12:49:33;;;;;;;5.67;2.72;;;;;;;26.48;48.66;98801.50;1831504;76;28016;-63
2021/06/14 12:52:20;;;;;;;6.60;3.33;;;;;;;26.69;48.98;98805.22;1889879;76;22573;-64
2021/06/14 12:54:58;;;;;;;6.10;2.90;;;;;;;26.92;48.17;98797.27;1870386;76;22214;-62
2021/06/14 12:57:37;;;;;;;6.65;3.27;;;;;;;27.08;47.61;98799.88;1870454;76;22140;-62
2021/06/14 13:00:31;;;;;;;5.47;3.00;;;;;;;27.13;47.36;98797.81;1760353;81;21586;-65
2021/06/14 13:03:07;;;;;;;5.95;2.40;;;;;;;27.38;46.98;98801.20;1889053;76;22187;-65
2021/06/14 13:05:47;;;;;;;4.83;2.50;;;;;;;27.43;46.10;98807.08;1852211;76;22174;-63
2021/06/14 13:08:45;;;;;;;5.42;2.72;;;;;;;27.41;45.29;98807.63;1807941;78;21130;-63
2021/06/14 13:11:20;;;;;;;8.23;2.55;;;;;;;27.13;45.76;98819.00;1870670;76;22148;-64
2021/06/14 13:13:55;;;;;;;8.48;2.83;;;;;;;26.84;46.48;98816.25;1870669;76;22113;-64
2021/06/14 13:16:30;;;;;;;5.85;2.83;;;;;;;26.71;46.57;98812.61;1889975;76;20346;-62
2021/06/14 13:19:25;;;;;;;18.42;5.20;;;;;;;26.68;47.09;98813.64;1861089;77;21157;-66
2021/06/14 13:22:15;;;;;;;5.42;2.80;;;;;;;26.90;47.24;98801.34;1888659;76;22231;-65